Time;durP1;ratioP1;P1;durP2;ratioP2;P2;SDS_P1;SDS_P2;PMS_P1;PMS_P2;Temp;Humidity;BMP_temperature;BMP_pressure;BME280_temperature;BME280_humidity;BME280_pressure;Samples;Min_cycle;Max_cycle;Signal;HPM_P1;HPM_P2
2024/04/17 00:00:43;;;;;;;1.27;0.60;;;;;;;20.85;40.78;101038.44;5467532;26;19999;-77
2024/04/17 00:03:11;;;;;;;1.20;0.40;;;;;;;20.83;40.99;101035.16;5472392;26;19998;-77
2024/04/17 00:05:37;;;;;;;1.52;0.65;;;;;;;20.81;40.85;101032.66;5466972;26;20010;-77
2024/04/17 00:08:03;;;;;;;1.00;0.60;;;;;;;20.80;41.05;101033.66;5466506;26;20053;-77
2024/04/17 00:10:29;;;;;;;1.60;0.80;;;;;;;20.79;41.10;101025.91;5442424;26;20006;-76
2024/04/17 00:12:55;;;;;;;0.85;0.50;;;;;;;20.80;41.02;101019.59;5442169;26;20005;-76
2024/04/17 00:15:21;;;;;;;0.98;0.60;;;;;;;20.77;41.08;101019.97;5436587;26;20597;-77
2024/04/17 00:17:47;;;;;;;0.73;0.57;;;;;;;20.76;41.31;101021.78;5470250;26;20016;-76
2024/04/17 00:20:13;;;;;;;1.15;0.57;;;;;;;20.75;41.47;101014.84;5442021;26;19998;-77
2024/04/17 00:22:39;;;;;;;0.85;0.50;;;;;;;20.73;41.09;101013.41;5470314;26;20021;-76
2024/04/17 00:25:05;;;;;;;0.60;0.30;;;;;;;20.70;40.92;101021.69;5411123;26;20017;-77
2024/04/17 00:27:31;;;;;;;2.10;0.60;;;;;;;20.74;40.56;101009.75;5464530;26;20071;-76
2024/04/17 00:29:57;;;;;;;0.93;0.50;;;;;;;20.69;41.04;101010.28;5471551;26;20959;-76
2024/04/17 00:32:23;;;;;;;0.75;0.50;;;;;;;20.70;40.87;101017.22;5471804;26;20006;-77
2024/04/17 00:34:49;;;;;;;0.80;0.50;;;;;;;20.70;41.10;101011.13;5471685;26;20470;-76
2024/04/17 00:37:15;;;;;;;0.80;0.40;;;;;;;20.67;41.13;101014.94;5465554;26;20000;-77
2024/04/17 00:39:41;;;;;;;1.45;0.52;;;;;;;20.64;41.03;101017.94;5468658;26;19998;-76
2024/04/17 00:42:07;;;;;;;0.70;0.50;;;;;;;20.67;41.06;101014.94;5490029;25;20009;-77
2024/04/17 00:44:33;;;;;;;1.70;0.70;;;;;;;20.65;41.08;101011.66;5467703;26;20005;-76
2024/04/17 00:46:59;;;;;;;0.88;0.47;;;;;;;20.64;41.11;101014.47;5433681;26;20125;-76
2024/04/17 00:49:26;;;;;;;1.67;0.55;;;;;;;20.63;40.77;101008.34;5467693;26;19998;-76
2024/04/17 00:51:52;;;;;;;1.90;0.93;;;;;;;20.63;41.35;101012.81;5466050;26;19999;-77
2024/04/17 00:54:19;;;;;;;1.58;0.50;;;;;;;20.61;41.12;101010.38;5466649;26;20020;-77
2024/04/17 00:56:46;;;;;;;1.58;0.60;;;;;;;20.64;40.84;101014.47;5467424;26;20028;-78
2024/04/17 00:59:12;;;;;;;0.88;0.68;;;;;;;20.60;41.05;101006.06;5466086;26;21109;-77
2024/04/17 01:01:38;;;;;;;1.20;0.50;;;;;;;20.62;41.32;101013.84;5468766;26;20006;-77
2024/04/17 01:04:04;;;;;;;1.05;0.50;;;;;;;20.60;41.39;101014.00;5436883;26;20657;-77
2024/04/17 01:06:30;;;;;;;1.50;0.73;;;;;;;20.59;41.21;101012.38;5467757;26;19998;-77
2024/04/17 01:08:56;;;;;;;0.80;0.60;;;;;;;20.58;40.73;101013.38;5431353;26;20013;-76
2024/04/17 01:11:22;;;;;;;1.05;0.60;;;;;;;20.59;40.69;101014.19;5469790;26;20011;-76
2024/04/17 01:13:48;;;;;;;1.30;0.60;;;;;;;20.56;40.98;101017.19;5466913;26;20441;-76
2024/04/17 01:16:14;;;;;;;0.98;0.52;;;;;;;20.54;41.10;101014.75;5432470;26;19998;-76
2024/04/17 01:18:44;;;;;;;0.80;0.50;;;;;;;20.56;41.30;101017.19;5476984;26;20087;-77
2024/04/17 01:21:10;;;;;;;0.95;0.70;;;;;;;20.52;40.77;101014.91;5446946;26;20363;-77
2024/04/17 01:23:36;;;;;;;0.98;0.50;;;;;;;20.53;41.42;101015.75;5438386;26;20077;-78
2024/04/17 01:26:02;;;;;;;0.82;0.50;;;;;;;20.50;40.89;101006.34;5468724;26;20010;-77
2024/04/17 01:28:28;;;;;;;1.13;0.50;;;;;;;20.48;40.90;101004.88;5408085;26;20597;-76
2024/04/17 01:30:54;;;;;;;0.85;0.60;;;;;;;20.55;41.23;101008.44;5469369;26;20005;-76
2024/04/17 01:33:20;;;;;;;0.68;0.50;;;;;;;20.56;41.08;101001.34;5437125;26;20020;-77
2024/04/17 01:35:46;;;;;;;1.42;0.45;;;;;;;20.50;41.42;100990.47;5471970;26;20030;-77
2024/04/17 01:38:12;;;;;;;0.80;0.50;;;;;;;20.48;41.35;101003.06;5439200;26;20091;-77
2024/04/17 01:40:38;;;;;;;1.13;0.50;;;;;;;20.49;41.43;100998.59;5463836;26;20006;-76
2024/04/17 01:43:04;;;;;;;0.93;0.40;;;;;;;20.48;41.20;100997.78;5463465;26;20002;-74
2024/04/17 01:45:30;;;;;;;1.33;0.80;;;;;;;20.51;40.88;100999.22;5437122;26;20533;-77
2024/04/17 01:47:56;;;;;;;0.80;0.52;;;;;;;20.49;41.39;100998.59;5468311;26;20406;-77
2024/04/17 01:50:28;;;;;;;1.60;0.68;;;;;;;20.40;41.09;100987.22;5466512;26;20006;-77
2024/04/17 01:52:54;;;;;;;0.80;0.45;;;;;;;20.49;40.70;100999.41;5441608;26;20013;-77
2024/04/17 01:55:20;;;;;;;0.80;0.70;;;;;;;20.48;40.83;101003.06;5466946;26;20005;-76
2024/04/17 01:57:46;;;;;;;1.60;0.93;;;;;;;20.44;40.84;100998.28;5468056;26;20002;-77
2024/04/17 02:00:12;;;;;;;1.05;0.60;;;;;;;20.44;41.19;101006.22;5467709;26;19994;-77
2024/04/17 02:02:38;;;;;;;1.05;0.65;;;;;;;20.41;41.12;101006.59;5466604;26;19990;-77
2024/04/17 02:05:04;;;;;;;0.57;0.30;;;;;;;20.37;41.28;101006.09;5465856;26;20010;-77
2024/04/17 02:07:30;;;;;;;0.80;0.50;;;;;;;20.40;40.90;101002.28;5464221;26;20006;-77
2024/04/17 02:09:56;;;;;;;1.38;0.60;;;;;;;20.40;41.26;100999.63;5493209;25;20598;-77
2024/04/17 02:12:22;;;;;;;0.90;0.50;;;;;;;20.42;41.53;100998.47;5470329;26;19993;-76
2024/04/17 02:14:48;;;;;;;1.17;0.68;;;;;;;20.38;41.19;100994.50;5469847;26;20006;-77
2024/04/17 02:17:14;;;;;;;0.85;0.52;;;;;;;20.37;41.45;100992.06;5474168;26;19998;-77
2024/04/17 02:19:40;;;;;;;1.30;0.65;;;;;;;20.34;41.45;100992.41;5443809;26;20408;-76
2024/04/17 02:22:06;;;;;;;1.00;0.68;;;;;;;20.31;41.43;100992.78;5445635;26;20005;-76
2024/04/17 02:24:32;;;;;;;0.82;0.40;;;;;;;20.36;41.32;100990.41;5470905;26;19998;-77
2024/04/17 02:26:58;;;;;;;0.77;0.40;;;;;;;20.36;41.16;100999.16;5443741;26;20019;-77
2024/04/17 02:29:24;;;;;;;1.42;0.45;;;;;;;20.36;41.09;100996.53;5440630;26;20079;-76
2024/04/17 02:31:50;;;;;;;0.70;0.60;;;;;;;20.33;41.13;101001.34;5437682;26;20006;-77
2024/04/17 02:34:16;;;;;;;0.73;0.40;;;;;;;20.34;41.05;100998.53;5442304;26;20013;-76
2024/04/17 02:36:43;;;;;;;0.85;0.50;;;;;;;20.32;40.98;100997.88;5472483;26;20007;-76
2024/04/17 02:39:09;;;;;;;0.85;0.65;;;;;;;20.33;41.42;101007.47;5471011;26;20021;-77
2024/04/17 02:41:35;;;;;;;0.90;0.60;;;;;;;20.28;41.64;101001.03;5469613;26;20003;-78
2024/04/17 02:44:01;;;;;;;0.55;0.50;;;;;;;20.30;41.06;100997.25;5475358;26;20002;-76
2024/04/17 02:46:27;;;;;;;1.10;0.50;;;;;;;20.28;41.07;100999.22;5474510;26;20396;-76
2024/04/17 02:48:53;;;;;;;0.70;0.50;;;;;;;20.30;41.28;101004.34;5444888;26;20500;-77
2024/04/17 02:51:19;;;;;;;0.63;0.50;;;;;;;20.25;41.57;100998.75;5472698;26;19994;-76
2024/04/17 02:53:45;;;;;;;0.85;0.50;;;;;;;20.22;41.35;100998.13;5478342;26;20005;-77
2024/04/17 02:56:11;;;;;;;0.95;0.40;;;;;;;20.27;41.45;100994.13;5476591;26;20021;-77
2024/04/17 02:58:37;;;;;;;1.00;0.70;;;;;;;20.23;41.02;100994.47;5441622;26;20523;-77
2024/04/17 03:01:16;;;;;;;0.63;0.57;;;;;;;20.23;41.11;100991.81;5481806;26;19990;-77
2024/04/17 03:03:42;;;;;;;1.15;0.50;;;;;;;20.23;41.16;100994.47;5475505;26;19995;-77
2024/04/17 03:06:08;;;;;;;0.52;0.50;;;;;;;20.20;41.33;100992.19;5475142;26;19999;-77
2024/04/17 03:08:34;;;;;;;1.45;0.52;;;;;;;20.20;41.63;100994.00;5446159;26;19994;-76
2024/04/17 03:11:02;;;;;;;0.90;0.57;;;;;;;20.23;41.31;101002.41;5467377;26;19998;-77
2024/04/17 03:13:28;;;;;;;1.02;0.60;;;;;;;20.19;41.52;100997.66;5466937;26;20008;-77
2024/04/17 03:15:54;;;;;;;1.50;0.70;;;;;;;20.20;41.13;100991.38;5474377;26;20003;-76
2024/04/17 03:18:21;;;;;;;0.52;0.40;;;;;;;20.18;41.12;100996.84;5478254;26;20045;-77
2024/04/17 03:20:47;;;;;;;0.85;0.50;;;;;;;20.20;41.31;100997.47;5476210;26;20013;-77
2024/04/17 03:23:13;;;;;;;0.70;0.40;;;;;;;20.13;41.26;100999.19;5476238;26;20013;-77
2024/04/17 03:25:39;;;;;;;0.70;0.40;;;;;;;20.16;41.32;101004.13;5447706;26;19995;-77
2024/04/17 03:28:05;;;;;;;0.60;0.50;;;;;;;20.16;41.45;101009.41;5477047;26;20005;-76
2024/04/17 03:30:31;;;;;;;0.68;0.50;;;;;;;20.18;41.32;101003.94;5477798;26;19999;-76
2024/04/17 03:32:57;;;;;;;0.77;0.40;;;;;;;20.17;41.35;101003.13;5476112;26;20013;-76
2024/04/17 03:35:23;;;;;;;0.70;0.50;;;;;;;20.21;41.18;101012.34;5480509;26;20059;-77
2024/04/17 03:37:49;;;;;;;1.58;0.50;;;;;;;20.14;41.34;101005.31;5446466;26;20002;-77
2024/04/17 03:40:15;;;;;;;0.75;0.50;;;;;;;20.13;41.38;101001.84;5478794;26;19994;-76
2024/04/17 03:42:41;;;;;;;0.80;0.50;;;;;;;20.13;41.35;101001.84;5498276;25;20338;-77
2024/04/17 03:45:07;;;;;;;0.77;0.57;;;;;;;20.09;41.38;101005.81;5442997;26;19990;-77
2024/04/17 03:47:34;;;;;;;0.73;0.50;;;;;;;20.10;41.12;101004.81;5449636;26;19994;-76
2024/04/17 03:50:04;;;;;;;0.80;0.50;;;;;;;20.11;41.46;101001.19;5476637;26;20002;-76
2024/04/17 03:52:31;;;;;;;0.82;0.50;;;;;;;20.10;41.63;101004.00;5473896;26;20002;-77
2024/04/17 03:54:58;;;;;;;1.20;0.60;;;;;;;20.09;41.58;100999.72;5470522;26;20317;-77
2024/04/17 03:57:25;;;;;;;1.48;0.30;;;;;;;20.07;41.35;100999.06;5479221;26;20005;-77
2024/04/17 03:59:51;;;;;;;0.82;0.45;;;;;;;20.09;41.29;101007.63;5475540;26;20014;-77
2024/04/17 04:02:17;;;;;;;0.85;0.47;;;;;;;20.08;41.22;101012.09;5420613;26;20013;-77
2024/04/17 04:04:43;;;;;;;0.73;0.45;;;;;;;20.08;41.08;101009.47;5478220;26;20006;-76
2024/04/17 04:07:09;;;;;;;0.52;0.47;;;;;;;20.09;41.00;101007.63;5438733;26;20315;-77
2024/04/17 04:09:35;;;;;;;0.65;0.50;;;;;;;20.06;41.55;101002.72;5474822;26;19998;-76
2024/04/17 04:12:01;;;;;;;0.93;0.63;;;;;;;20.07;41.56;101012.28;5476296;26;20010;-77
2024/04/17 04:14:27;;;;;;;1.05;0.50;;;;;;;20.09;41.40;101007.63;5445431;26;19990;-76
2024/04/17 04:16:53;;;;;;;0.60;0.50;;;;;;;20.08;41.51;101009.47;5471024;26;19998;-76
2024/04/17 04:19:22;;;;;;;0.20;0.20;;;;;;;20.06;41.38;101013.28;5474490;26;20001;-77
2024/04/17 04:21:48;;;;;;;1.20;0.90;;;;;;;20.06;41.59;101014.09;5477497;26;20243;-76
2024/04/17 04:24:16;;;;;;;0.70;0.45;;;;;;;20.05;41.63;101016.94;5473681;26;20411;-77
2024/04/17 04:26:42;;;;;;;0.60;0.40;;;;;;;20.05;41.30;101012.47;5481771;26;21835;-76
2024/04/17 04:29:08;;;;;;;0.52;0.40;;;;;;;20.01;41.33;101018.28;5448699;26;20071;-76
2024/04/17 04:31:34;;;;;;;0.75;0.43;;;;;;;19.98;41.82;101022.09;5444934;26;19994;-76
2024/04/17 04:34:00;;;;;;;1.17;0.60;;;;;;;20.00;41.37;101024.56;5463471;26;20007;-77
2024/04/17 04:36:26;;;;;;;0.98;0.38;;;;;;;20.00;41.31;101019.28;5478275;26;20407;-77
2024/04/17 04:38:52;;;;;;;1.00;0.45;;;;;;;20.01;41.64;101023.56;5471131;26;20622;-77
2024/04/17 04:41:18;;;;;;;0.52;0.45;;;;;;;20.02;41.73;101022.56;5478051;26;19993;-77
2024/04/17 04:43:44;;;;;;;0.68;0.40;;;;;;;20.01;41.66;101020.94;5444363;26;20013;-76
2024/04/17 04:46:11;;;;;;;0.82;0.40;;;;;;;19.99;41.46;101028.22;5473076;26;20079;-77
2024/04/17 04:48:37;;;;;;;0.40;0.40;;;;;;;19.99;41.42;101022.94;5444576;26;20016;-76
2024/04/17 04:51:03;;;;;;;0.47;0.40;;;;;;;19.94;41.54;101022.66;5472936;26;19998;-77
2024/04/17 04:53:29;;;;;;;0.70;0.43;;;;;;;19.99;41.23;101023.75;5476984;26;20001;-74
2024/04/17 04:55:59;;;;;;;0.73;0.40;;;;;;;19.92;41.63;101028.06;5462247;26;20399;-76
2024/04/17 04:58:25;;;;;;;0.93;0.30;;;;;;;19.95;41.49;101027.75;5471050;26;19998;-74
2024/04/17 05:00:52;;;;;;;3.45;0.50;;;;;;;19.89;41.50;101028.44;5463399;26;20098;-72
2024/04/17 05:03:18;;;;;;;0.95;0.40;;;;;;;19.95;41.85;101026.94;5438425;26;20416;-74
2024/04/17 05:05:45;;;;;;;0.65;0.47;;;;;;;19.92;41.58;101036.81;5463423;26;20087;-74
2024/04/17 05:08:11;;;;;;;1.25;0.40;;;;;;;19.94;41.63;101041.16;5436357;26;20005;-74
2024/04/17 05:10:37;;;;;;;2.15;0.65;;;;;;;19.92;41.56;101042.13;5406743;26;20072;-74
2024/04/17 05:13:04;;;;;;;0.98;0.50;;;;;;;19.95;41.23;101040.97;5488621;25;20016;-74
2024/04/17 05:15:29;;;;;;;0.65;0.30;;;;;;;19.94;41.66;101043.78;5461552;26;20407;-73
2024/04/17 05:17:55;;;;;;;2.25;0.50;;;;;;;19.90;41.52;101044.09;5439260;26;20013;-73
2024/04/17 05:20:22;;;;;;;1.23;0.43;;;;;;;19.87;41.66;101043.66;5411093;26;20075;-68
2024/04/17 05:22:48;;;;;;;0.77;0.43;;;;;;;19.90;41.33;101038.00;5458875;26;20045;-69
2024/04/17 05:25:15;;;;;;;1.30;0.50;;;;;;;19.84;41.25;101038.72;5465520;26;20005;-69
2024/04/17 05:27:42;;;;;;;0.95;0.50;;;;;;;19.91;40.86;101037.00;5465137;26;20427;-69
2024/04/17 05:30:11;;;;;;;0.70;0.30;;;;;;;19.89;40.84;101045.09;5461142;26;19990;-69
2024/04/17 05:32:37;;;;;;;0.40;0.30;;;;;;;19.91;41.10;101053.69;5457561;26;20020;-68
2024/04/17 05:35:04;;;;;;;0.32;0.32;;;;;;;19.89;40.64;101049.56;5468494;26;20500;-69
2024/04/17 05:37:30;;;;;;;0.57;0.40;;;;;;;19.83;40.48;101056.38;5461421;26;20046;-68
2024/04/17 05:39:56;;;;;;;0.95;0.40;;;;;;;19.88;40.73;101061.97;5462008;26;19994;-70
2024/04/17 05:42:22;;;;;;;1.75;0.40;;;;;;;19.87;40.75;101062.16;5434149;26;20021;-66
2024/04/17 05:44:48;;;;;;;1.30;0.45;;;;;;;19.86;40.34;101066.59;5434030;26;19998;-69
2024/04/17 05:47:14;;;;;;;2.65;0.65;;;;;;;19.85;40.39;101072.88;5457039;26;20384;-69
2024/04/17 05:49:40;;;;;;;1.23;0.40;;;;;;;19.83;40.45;101084.63;5462304;26;20002;-69
2024/04/17 05:52:09;;;;;;;1.73;0.55;;;;;;;19.77;39.91;101067.66;5437042;26;20340;-69
2024/04/17 05:54:36;;;;;;;1.55;0.47;;;;;;;19.81;40.12;101065.50;5456302;26;20414;-68
2024/04/17 05:57:02;;;;;;;2.10;0.40;;;;;;;19.78;40.02;101068.47;5470349;26;20063;-68
2024/04/17 05:59:28;;;;;;;1.85;0.40;;;;;;;19.84;39.91;101063.31;5467392;26;20482;-69
2024/04/17 06:01:57;;;;;;;0.95;0.52;;;;;;;20.01;40.20;101066.69;5460441;26;19998;-69
2024/04/17 06:04:23;;;;;;;0.60;0.30;;;;;;;19.84;40.79;101071.25;5468393;26;20421;-69
2024/04/17 06:06:49;;;;;;;0.85;0.30;;;;;;;20.03;40.87;101074.44;5456863;26;19995;-69
2024/04/17 06:09:15;;;;;;;1.17;0.50;;;;;;;20.22;40.10;101076.63;5465641;26;20005;-69
2024/04/17 06:11:41;;;;;;;1.05;0.40;;;;;;;20.21;40.42;101077.63;5466839;26;20010;-69
2024/04/17 06:14:07;;;;;;;2.40;0.30;;;;;;;20.20;40.12;101081.28;5416360;26;19999;-69
2024/04/17 06:16:33;;;;;;;2.67;0.30;;;;;;;20.18;40.43;101085.91;5464248;26;20490;-68
2024/04/17 06:18:59;;;;;;;0.85;0.35;;;;;;;20.28;39.76;101091.78;5466112;26;20012;-69
2024/04/17 06:21:28;;;;;;;0.80;0.30;;;;;;;20.43;40.10;101091.88;5465344;26;19998;-69
2024/04/17 06:23:54;;;;;;;0.88;0.30;;;;;;;20.49;39.76;101088.53;5464585;26;20075;-68
2024/04/17 06:26:20;;;;;;;0.55;0.40;;;;;;;20.52;39.32;101083.72;5459069;26;20046;-69
2024/04/17 06:28:46;;;;;;;1.20;0.40;;;;;;;20.60;39.07;101087.28;5468740;26;20006;-69
2024/04/17 06:31:12;;;;;;;1.13;0.40;;;;;;;20.58;39.17;101082.16;5464506;26;20009;-68
2024/04/17 06:33:38;;;;;;;2.58;0.68;;;;;;;20.54;38.95;101080.88;5464794;26;20011;-69
2024/04/17 06:36:05;;;;;;;1.27;0.28;;;;;;;20.53;38.88;101073.94;5464004;26;20004;-69
2024/04/17 06:38:31;;;;;;;2.15;0.52;;;;;;;20.51;39.63;101074.13;5464122;26;20038;-69
2024/04/17 06:40:57;;;;;;;0.50;0.30;;;;;;;20.49;39.06;101083.25;5432473;26;20009;-68
2024/04/17 06:43:23;;;;;;;1.08;0.50;;;;;;;20.49;39.41;101077.97;5471378;26;20013;-69
2024/04/17 06:45:49;;;;;;;2.20;0.50;;;;;;;20.50;38.87;101075.13;5462881;26;20017;-68
2024/04/17 06:48:22;;;;;;;1.13;0.40;;;;;;;20.45;39.31;101076.63;5469801;26;19998;-68
2024/04/17 06:50:48;;;;;;;1.25;0.40;;;;;;;20.43;39.21;101082.13;5464599;26;20059;-68
2024/04/17 06:53:14;;;;;;;1.45;0.70;;;;;;;20.41;39.40;101078.81;5464595;26;20003;-68
2024/04/17 06:55:42;;;;;;;0.82;0.40;;;;;;;20.40;39.25;101078.97;5463703;26;20307;-69
2024/04/17 06:58:08;;;;;;;2.25;0.45;;;;;;;20.35;39.34;101083.97;5464587;26;20324;-68
2024/04/17 07:00:36;;;;;;;0.63;0.40;;;;;;;20.38;39.12;101089.72;5462023;26;20003;-69
2024/04/17 07:03:02;;;;;;;1.42;0.55;;;;;;;20.35;39.54;101095.38;5471069;26;20335;-69
2024/04/17 07:05:29;;;;;;;1.30;0.50;;;;;;;20.36;39.36;101104.13;5471299;26;19998;-68
2024/04/17 07:07:55;;;;;;;1.08;0.40;;;;;;;20.33;38.89;101107.13;5440753;26;19999;-68
2024/04/17 07:10:22;;;;;;;1.15;0.50;;;;;;;20.31;39.03;101101.22;5441750;26;20013;-68
2024/04/17 07:12:48;;;;;;;2.75;0.40;;;;;;;20.30;39.29;101113.59;5443279;26;20002;-68
2024/04/17 07:15:14;;;;;;;1.00;0.35;;;;;;;20.27;39.13;101103.34;5467277;26;20050;-68
2024/04/17 07:17:40;;;;;;;1.13;0.52;;;;;;;20.21;39.53;101094.31;5468107;26;20009;-68
2024/04/17 07:20:07;;;;;;;1.33;0.80;;;;;;;20.23;39.75;101104.72;5466676;26;20362;-68
2024/04/17 07:22:33;;;;;;;1.17;0.60;;;;;;;20.23;39.49;101107.34;5462731;26;20909;-68
2024/04/17 07:24:59;;;;;;;1.55;0.47;;;;;;;20.22;39.56;101103.06;5469958;26;20719;-68
2024/04/17 07:27:26;;;;;;;4.38;0.65;;;;;;;20.23;39.36;101104.72;5439241;26;20009;-68
2024/04/17 07:29:52;;;;;;;1.40;0.65;;;;;;;20.27;39.74;101102.53;5468226;26;20002;-68
2024/04/17 07:32:18;;;;;;;1.58;0.50;;;;;;;20.27;39.44;101097.25;5469282;26;19998;-68
2024/04/17 07:34:43;;;;;;;2.13;0.63;;;;;;;20.20;39.75;101094.50;5464826;26;20017;-68
2024/04/17 07:37:10;;;;;;;2.20;0.63;;;;;;;20.25;39.56;101093.97;5466586;26;20373;-68
2024/04/17 07:39:36;;;;;;;1.20;0.40;;;;;;;20.39;39.40;101098.50;5464636;26;19995;-68
2024/04/17 07:42:02;;;;;;;2.10;0.50;;;;;;;20.47;39.38;101098.47;5464794;26;20472;-68
2024/04/17 07:44:29;;;;;;;1.63;0.50;;;;;;;20.54;39.21;101093.28;5470659;26;20018;-68
2024/04/17 07:46:55;;;;;;;1.00;0.40;;;;;;;20.56;38.69;101097.41;5462469;26;20312;-68
2024/04/17 07:49:21;;;;;;;0.63;0.35;;;;;;;20.56;39.14;101097.41;5463377;26;20006;-68
2024/04/17 07:51:47;;;;;;;1.88;0.77;;;;;;;20.48;38.86;101093.00;5438311;26;20013;-68
2024/04/17 07:54:13;;;;;;;1.40;0.50;;;;;;;20.49;39.21;101094.66;5471986;26;20029;-68
2024/04/17 07:56:39;;;;;;;2.00;0.77;;;;;;;20.49;39.13;101094.66;5468433;26;20003;-68
2024/04/17 07:59:05;;;;;;;1.90;0.57;;;;;;;20.44;39.01;101094.34;5468919;26;20332;-68
2024/04/17 08:01:31;;;;;;;1.52;0.70;;;;;;;20.46;39.32;101102.91;5466963;26;20045;-67
2024/04/17 08:03:58;;;;;;;1.42;0.50;;;;;;;20.43;39.11;101100.63;5471121;26;20499;-68
2024/04/17 08:06:24;;;;;;;4.35;0.90;;;;;;;20.42;39.27;101088.41;5469681;26;20014;-67
2024/04/17 08:08:50;;;;;;;0.95;0.57;;;;;;;20.42;38.91;101104.28;5470852;26;20023;-67
2024/04/17 08:11:20;;;;;;;0.98;0.80;;;;;;;20.40;39.32;101106.25;5492488;25;20674;-68
2024/04/17 08:13:46;;;;;;;0.80;0.50;;;;;;;20.39;39.08;101101.13;5440063;26;20027;-68
2024/04/17 08:16:12;;;;;;;0.90;0.43;;;;;;;20.39;39.25;101099.31;5463746;26;20029;-68
2024/04/17 08:18:38;;;;;;;1.02;0.60;;;;;;;20.36;39.29;101093.56;5466880;26;19994;-68
2024/04/17 08:21:04;;;;;;;0.60;0.50;;;;;;;20.41;39.39;101088.59;5445081;26;20022;-67
2024/04/17 08:23:30;;;;;;;1.40;0.50;;;;;;;20.37;38.80;101093.38;5441816;26;20010;-69
2024/04/17 08:25:56;;;;;;;0.68;0.50;;;;;;;20.37;39.52;101093.38;5465439;26;20413;-68
2024/04/17 08:28:22;;;;;;;2.22;0.63;;;;;;;20.33;39.02;101097.38;5465843;26;20010;-68
2024/04/17 08:30:48;;;;;;;2.05;0.80;;;;;;;20.37;39.41;101093.38;5438375;26;20021;-68
2024/04/17 08:33:14;;;;;;;1.33;0.50;;;;;;;20.30;39.26;101091.63;5467194;26;20002;-68
2024/04/17 08:35:40;;;;;;;1.27;0.60;;;;;;;20.31;38.95;101096.75;5435404;26;20010;-68
2024/04/17 08:38:07;;;;;;;1.00;0.55;;;;;;;20.33;38.98;101093.91;5445457;26;19998;-68
2024/04/17 08:40:33;;;;;;;1.52;0.50;;;;;;;20.35;39.35;101097.19;5435060;26;20441;-68
2024/04/17 08:43:04;;;;;;;1.48;0.77;;;;;;;20.38;39.16;101095.03;5466178;26;19997;-68
2024/04/17 08:45:34;;;;;;;1.50;0.50;;;;;;;20.34;38.82;101088.44;5467436;26;20034;-68
2024/04/17 08:48:01;;;;;;;1.70;0.63;;;;;;;20.44;38.98;101089.03;5428302;26;20067;-68
2024/04/17 08:50:30;;;;;;;1.27;0.52;;;;;;;20.43;38.93;101084.75;5468163;26;20002;-68
2024/04/17 08:52:59;;;;;;;0.90;0.50;;;;;;;20.41;38.78;101091.22;5433105;26;20002;-67
2024/04/17 08:55:29;;;;;;;1.90;0.82;;;;;;;20.43;38.79;101087.41;5464273;26;20013;-68
2024/04/17 08:57:56;;;;;;;1.38;0.60;;;;;;;20.45;38.78;101089.88;5470419;26;19990;-68
2024/04/17 09:00:26;;;;;;;2.67;0.50;;;;;;;20.43;38.53;101087.41;5462481;26;20663;-68
2024/04/17 09:06:50;;;;;;;2.08;0.50;;;;;;;20.49;38.68;101086.72;5461933;26;20002;-68
2024/04/17 09:09:19;;;;;;;2.92;0.68;;;;;;;20.49;38.67;101086.72;5461382;26;20415;-68
2024/04/17 09:11:45;;;;;;;1.50;0.60;;;;;;;20.46;38.74;101081.75;5463724;26;20411;-68
2024/04/17 09:14:11;;;;;;;1.83;0.68;;;;;;;20.50;38.53;101088.34;5463522;26;19998;-68
2024/04/17 09:16:39;;;;;;;1.73;0.60;;;;;;;20.37;39.42;101088.09;5466638;26;20069;-68
2024/04/17 09:19:07;;;;;;;1.10;0.45;;;;;;;20.45;39.39;101079.28;5467812;26;20397;-68
2024/04/17 09:21:38;;;;;;;2.15;0.60;;;;;;;20.50;39.04;101076.94;5462127;26;20018;-68
2024/04/17 09:24:04;;;;;;;1.52;0.70;;;;;;;20.53;39.15;101079.25;5466533;26;20012;-68
2024/04/17 09:26:30;;;;;;;1.85;0.85;;;;;;;20.52;39.09;101081.06;5433279;26;20579;-67
2024/04/17 09:28:56;;;;;;;2.08;0.52;;;;;;;20.58;38.99;101081.34;5468674;26;20009;-67
2024/04/17 09:31:23;;;;;;;1.52;0.50;;;;;;;20.66;38.67;101082.13;5432512;26;20006;-68
2024/04/17 09:33:51;;;;;;;1.85;0.50;;;;;;;20.70;38.84;101083.38;5463187;26;20025;-68
2024/04/17 09:36:17;;;;;;;2.80;0.63;;;;;;;20.70;38.49;101074.63;5438435;26;20020;-68
2024/04/17 09:38:43;;;;;;;3.08;0.80;;;;;;;20.83;38.37;101082.78;5469395;26;20023;-68
2024/04/17 09:41:09;;;;;;;0.75;0.40;;;;;;;20.83;38.12;101087.25;5457741;26;20513;-69
2024/04/17 09:43:44;;;;;;;1.33;0.50;;;;;;;20.84;38.13;101080.97;5470971;26;20009;-68
2024/04/17 09:46:14;;;;;;;1.13;0.45;;;;;;;20.78;38.21;101087.78;5463235;26;20081;-69
2024/04/17 09:48:41;;;;;;;1.23;0.40;;;;;;;20.77;38.23;101079.00;5466524;26;20496;-68
2024/04/17 09:51:10;;;;;;;2.53;0.85;;;;;;;20.71;38.60;101078.91;5460444;26;20008;-68
2024/04/17 09:53:54;;;;;;;1.45;0.85;;;;;;;20.72;38.47;101086.69;5439218;26;20709;-68
2024/04/17 09:56:21;;;;;;;1.52;0.50;;;;;;;20.70;38.37;101090.50;5460989;26;19994;-68
2024/04/17 09:58:50;;;;;;;1.20;0.57;;;;;;;20.71;38.39;101090.31;5443535;26;20278;-68
2024/04/17 10:01:16;;;;;;;0.95;0.40;;;;;;;20.67;38.20;101098.81;5462308;26;20014;-68
2024/04/17 10:03:43;;;;;;;1.85;0.50;;;;;;;20.64;38.52;101093.84;5455415;26;20050;-68
2024/04/17 10:06:09;;;;;;;2.90;0.80;;;;;;;20.65;38.23;101095.53;5460599;26;20762;-67
2024/04/17 10:08:37;;;;;;;2.25;0.98;;;;;;;20.64;38.35;101094.66;5436008;26;19997;-68
2024/04/17 10:11:05;;;;;;;1.83;0.60;;;;;;;20.64;37.95;101097.31;5464721;26;19994;-68
2024/04/17 10:13:32;;;;;;;2.28;0.60;;;;;;;20.65;38.30;101091.06;5463519;26;20412;-68
2024/04/17 10:15:58;;;;;;;3.72;0.60;;;;;;;20.64;38.29;101094.66;5464550;26;20003;-68
2024/04/17 10:18:25;;;;;;;2.22;0.52;;;;;;;20.66;38.52;101087.41;5465897;26;20033;-67
2024/04/17 10:20:55;;;;;;;2.20;0.82;;;;;;;20.64;38.64;101097.31;5452601;26;21951;-68
2024/04/17 10:23:24;;;;;;;4.22;0.68;;;;;;;20.70;36.91;101091.31;5464543;26;19998;-67
2024/04/17 10:25:54;;;;;;;1.40;0.70;;;;;;;20.63;37.32;101093.03;5467256;26;20357;-68
2024/04/17 10:28:21;;;;;;;;;;;;;;;20.51;37.39;101090.00;5459974;26;19998;-69
2024/04/17 10:30:53;;;;;;;5.15;0.63;;;;;;;20.57;37.63;101090.28;5463627;26;20027;-68
2024/04/17 10:33:40;;;;;;;1.85;0.52;;;;;;;20.59;38.03;101086.44;5459599;26;19998;-67
2024/04/17 10:36:07;;;;;;;1.58;0.40;;;;;;;20.57;37.72;101082.34;5470638;26;20071;-67
2024/04/17 10:38:33;;;;;;;2.28;0.60;;;;;;;20.55;38.76;101082.53;5435837;26;20014;-68
2024/04/17 10:41:02;;;;;;;3.35;0.55;;;;;;;20.53;38.24;101079.25;5465468;26;19998;-69
2024/04/17 10:43:32;;;;;;;4.07;0.82;;;;;;;20.57;38.60;101080.53;5468640;26;20010;-68
2024/04/17 10:46:10;;;;;;;2.75;0.70;;;;;;;20.55;37.73;101071.94;5468079;26;20002;-68
2024/04/17 10:48:45;;;;;;;1.13;0.40;;;;;;;20.51;38.03;101073.31;5455963;26;20002;-68
2024/04/17 10:51:14;;;;;;;6.43;0.90;;;;;;;20.51;38.18;101066.19;5463984;26;19998;-69
2024/04/17 10:53:46;;;;;;;2.40;0.68;;;;;;;20.55;37.86;101073.75;5462264;26;20006;-69
2024/04/17 10:56:15;;;;;;;1.42;0.50;;;;;;;20.51;38.00;101070.66;5457340;26;20018;-69
2024/04/17 10:58:41;;;;;;;;;;;;;;;20.51;38.23;101071.47;5464756;26;20006;-68
2024/04/17 11:01:07;;;;;;;2.17;0.70;;;;;;;20.48;37.97;101069.19;5464148;26;20746;-68
2024/04/17 11:03:33;;;;;;;3.55;0.70;;;;;;;20.49;37.48;101070.03;5463989;26;19998;-71
2024/04/17 11:06:00;;;;;;;1.73;0.50;;;;;;;20.48;37.79;101068.38;5462124;26;20009;-67
2024/04/17 11:08:26;;;;;;;1.20;0.60;;;;;;;20.42;37.80;101077.00;5461587;26;20067;-69
2024/04/17 11:10:54;;;;;;;2.30;0.70;;;;;;;20.39;38.65;101078.16;5462862;26;19995;-69
2024/04/17 11:13:20;;;;;;;1.55;0.50;;;;;;;20.39;38.35;101075.50;5467878;26;20113;-69
2024/04/17 11:15:47;;;;;;;2.05;0.60;;;;;;;20.30;38.95;101073.13;5470573;26;19998;-70
2024/04/17 11:18:13;;;;;;;1.65;0.55;;;;;;;20.31;39.20;101088.81;5470336;26;19994;-70
2024/04/17 11:20:40;;;;;;;2.25;0.70;;;;;;;20.42;38.88;101077.00;5461791;26;20006;-69
2024/04/17 11:23:07;;;;;;;2.13;0.75;;;;;;;20.46;38.50;101080.94;5470619;26;20497;-70
2024/04/17 11:25:37;;;;;;;3.00;0.75;;;;;;;20.56;39.02;101078.88;5467992;26;20403;-70
2024/04/17 11:28:03;;;;;;;0.98;0.43;;;;;;;20.61;38.85;101087.09;5463610;26;20015;-69